sensor_id;sensor_type;location;lat;lon;timestamp;temperature;humidity
11736;DHT22;5924;51.398;7.088;2022-08-19T00:01:23;16.40;98.60
11736;DHT22;5924;51.398;7.088;2022-08-19T00:03:49;16.40;99.70
11736;DHT22;5924;51.398;7.088;2022-08-19T00:06:15;16.40;99.90
11736;DHT22;5924;51.398;7.088;2022-08-19T00:08:41;16.40;99.90
11736;DHT22;5924;51.398;7.088;2022-08-19T00:11:09;16.40;99.90
11736;DHT22;5924;51.398;7.088;2022-08-19T00:13:35;17.60;99.90
11736;DHT22;5924;51.398;7.088;2022-08-19T00:16:01;16.30;99.90
11736;DHT22;5924;51.398;7.088;2022-08-19T00:18:27;16.20;99.90
11736;DHT22;5924;51.398;7.088;2022-08-19T00:20:53;16.20;99.90
11736;DHT22;5924;51.398;7.088;2022-08-19T00:23:19;16.20;99.90
11736;DHT22;5924;51.398;7.088;2022-08-19T00:25:45;16.20;99.90
11736;DHT22;5924;51.398;7.088;2022-08-19T00:28:10;16.20;99.90
11736;DHT22;5924;51.398;7.088;2022-08-19T00:30:36;16.20;99.90
11736;DHT22;5924;51.398;7.088;2022-08-19T00:33:02;16.20;99.90
11736;DHT22;5924;51.398;7.088;2022-08-19T00:35:28;16.20;99.90
11736;DHT22;5924;51.398;7.088;2022-08-19T00:37:54;16.10;99.90
11736;DHT22;5924;51.398;7.088;2022-08-19T00:40:20;16.10;99.90
11736;DHT22;5924;51.398;7.088;2022-08-19T00:42:47;16.10;99.90
11736;DHT22;5924;51.398;7.088;2022-08-19T00:45:19;16.10;99.90
11736;DHT22;5924;51.398;7.088;2022-08-19T00:47:45;16.10;99.90
11736;DHT22;5924;51.398;7.088;2022-08-19T00:50:14;16.00;99.90
11736;DHT22;5924;51.398;7.088;2022-08-19T00:52:45;16.00;99.90
11736;DHT22;5924;51.398;7.088;2022-08-19T00:55:19;16.00;99.90
11736;DHT22;5924;51.398;7.088;2022-08-19T00:57:49;16.00;99.90
11736;DHT22;5924;51.398;7.088;2022-08-19T01:00:18;16.00;99.90
11736;DHT22;5924;51.398;7.088;2022-08-19T01:02:45;15.90;99.90
11736;DHT22;5924;51.398;7.088;2022-08-19T01:05:14;16.00;99.90
11736;DHT22;5924;51.398;7.088;2022-08-19T01:07:41;15.90;99.90
11736;DHT22;5924;51.398;7.088;2022-08-19T01:10:12;15.80;99.90
11736;DHT22;5924;51.398;7.088;2022-08-19T01:12:39;15.90;99.90
11736;DHT22;5924;51.398;7.088;2022-08-19T01:15:09;15.90;99.90
11736;DHT22;5924;51.398;7.088;2022-08-19T01:17:38;15.80;99.90
11736;DHT22;5924;51.398;7.088;2022-08-19T01:20:07;15.80;99.90
11736;DHT22;5924;51.398;7.088;2022-08-19T01:22:42;15.80;99.90
11736;DHT22;5924;51.398;7.088;2022-08-19T01:25:08;15.70;99.90
11736;DHT22;5924;51.398;7.088;2022-08-19T01:27:39;15.70;99.90
11736;DHT22;5924;51.398;7.088;2022-08-19T01:30:07;15.70;99.90
11736;DHT22;5924;51.398;7.088;2022-08-19T01:32:33;15.70;99.90
11736;DHT22;5924;51.398;7.088;2022-08-19T01:34:59;15.60;99.90
11736;DHT22;5924;51.398;7.088;2022-08-19T01:37:27;15.60;99.90
11736;DHT22;5924;51.398;7.088;2022-08-19T01:39:52;15.60;99.90
11736;DHT22;5924;51.398;7.088;2022-08-19T01:42:18;15.60;99.90
11736;DHT22;5924;51.398;7.088;2022-08-19T01:44:45;13.30;99.90
11736;DHT22;5924;51.398;7.088;2022-08-19T01:47:10;15.60;99.90
11736;DHT22;5924;51.398;7.088;2022-08-19T01:49:36;15.60;99.90
11736;DHT22;5924;51.398;7.088;2022-08-19T01:52:03;15.60;99.90
11736;DHT22;5924;51.398;7.088;2022-08-19T01:54:29;15.50;99.90
11736;DHT22;5924;51.398;7.088;2022-08-19T01:57:04;15.50;99.90
11736;DHT22;5924;51.398;7.088;2022-08-19T01:59:30;15.50;99.90
11736;DHT22;5924;51.398;7.088;2022-08-19T02:01:57;15.50;99.90
11736;DHT22;5924;51.398;7.088;2022-08-19T02:04:22;15.50;99.90
11736;DHT22;5924;51.398;7.088;2022-08-19T02:06:48;15.50;99.90
11736;DHT22;5924;51.398;7.088;2022-08-19T02:09:14;15.50;99.90
11736;DHT22;5924;51.398;7.088;2022-08-19T02:11:41;15.40;99.90
11736;DHT22;5924;51.398;7.088;2022-08-19T02:14:08;15.40;99.90
11736;DHT22;5924;51.398;7.088;2022-08-19T02:16:35;15.40;99.90
11736;DHT22;5924;51.398;7.088;2022-08-19T02:19:01;15.50;99.90
11736;DHT22;5924;51.398;7.088;2022-08-19T02:21:27;15.50;99.90
11736;DHT22;5924;51.398;7.088;2022-08-19T02:23:53;15.40;99.90
11736;DHT22;5924;51.398;7.088;2022-08-19T02:26:19;15.40;99.90
11736;DHT22;5924;51.398;7.088;2022-08-19T02:28:45;15.30;99.90
11736;DHT22;5924;51.398;7.088;2022-08-19T02:31:13;15.30;99.90
11736;DHT22;5924;51.398;7.088;2022-08-19T02:33:40;15.30;99.90
11736;DHT22;5924;51.398;7.088;2022-08-19T02:36:06;15.30;99.90
11736;DHT22;5924;51.398;7.088;2022-08-19T02:38:32;15.30;99.90
11736;DHT22;5924;51.398;7.088;2022-08-19T02:41:02;15.30;99.90
11736;DHT22;5924;51.398;7.088;2022-08-19T02:43:29;15.30;99.90
11736;DHT22;5924;51.398;7.088;2022-08-19T02:45:55;15.20;99.90
11736;DHT22;5924;51.398;7.088;2022-08-19T02:48:22;15.20;99.90
11736;DHT22;5924;51.398;7.088;2022-08-19T02:50:50;15.20;99.90
11736;DHT22;5924;51.398;7.088;2022-08-19T02:53:26;15.60;99.90
11736;DHT22;5924;51.398;7.088;2022-08-19T02:55:52;15.20;99.90
11736;DHT22;5924;51.398;7.088;2022-08-19T02:58:19;15.20;99.90
11736;DHT22;5924;51.398;7.088;2022-08-19T03:00:47;15.20;99.90
11736;DHT22;5924;51.398;7.088;2022-08-19T03:03:14;15.10;99.90
11736;DHT22;5924;51.398;7.088;2022-08-19T03:05:41;15.10;99.90
11736;DHT22;5924;51.398;7.088;2022-08-19T03:08:07;15.10;99.90
11736;DHT22;5924;51.398;7.088;2022-08-19T03:10:43;15.10;99.90
11736;DHT22;5924;51.398;7.088;2022-08-19T03:13:11;15.10;99.90
11736;DHT22;5924;51.398;7.088;2022-08-19T03:15:42;15.10;99.90
11736;DHT22;5924;51.398;7.088;2022-08-19T03:18:09;15.10;99.90
11736;DHT22;5924;51.398;7.088;2022-08-19T03:20:43;15.10;99.90
11736;DHT22;5924;51.398;7.088;2022-08-19T03:23:09;15.10;99.90
11736;DHT22;5924;51.398;7.088;2022-08-19T03:25:43;15.00;99.90
11736;DHT22;5924;51.398;7.088;2022-08-19T03:28:13;15.00;99.90
11736;DHT22;5924;51.398;7.088;2022-08-19T03:30:42;15.00;99.90
11736;DHT22;5924;51.398;7.088;2022-08-19T03:33:10;15.00;99.90
11736;DHT22;5924;51.398;7.088;2022-08-19T03:35:37;15.00;99.90
11736;DHT22;5924;51.398;7.088;2022-08-19T03:38:04;15.10;99.90
11736;DHT22;5924;51.398;7.088;2022-08-19T03:40:31;15.00;99.90
11736;DHT22;5924;51.398;7.088;2022-08-19T03:42:57;15.00;99.90
11736;DHT22;5924;51.398;7.088;2022-08-19T03:45:23;15.00;99.90
11736;DHT22;5924;51.398;7.088;2022-08-19T03:47:49;14.90;99.90
11736;DHT22;5924;51.398;7.088;2022-08-19T03:50:15;13.20;99.90
11736;DHT22;5924;51.398;7.088;2022-08-19T03:52:41;14.90;99.90
11736;DHT22;5924;51.398;7.088;2022-08-19T03:55:08;14.90;99.90
11736;DHT22;5924;51.398;7.088;2022-08-19T03:57:34;14.90;99.90
11736;DHT22;5924;51.398;7.088;2022-08-19T04:00:00;14.90;99.90
11736;DHT22;5924;51.398;7.088;2022-08-19T04:02:26;14.90;99.90
11736;DHT22;5924;51.398;7.088;2022-08-19T04:04:53;14.90;99.90
11736;DHT22;5924;51.398;7.088;2022-08-19T04:07:19;14.90;99.90
11736;DHT22;5924;51.398;7.088;2022-08-19T04:09:47;14.80;99.90
11736;DHT22;5924;51.398;7.088;2022-08-19T04:12:12;14.80;99.90
11736;DHT22;5924;51.398;7.088;2022-08-19T04:14:39;14.80;99.90
11736;DHT22;5924;51.398;7.088;2022-08-19T04:17:05;17.10;99.90
11736;DHT22;5924;51.398;7.088;2022-08-19T04:19:32;14.90;99.90
11736;DHT22;5924;51.398;7.088;2022-08-19T04:21:58;15.00;99.90
11736;DHT22;5924;51.398;7.088;2022-08-19T04:24:24;15.00;99.90
11736;DHT22;5924;51.398;7.088;2022-08-19T04:26:50;15.00;99.90
11736;DHT22;5924;51.398;7.088;2022-08-19T04:29:18;15.00;99.90
11736;DHT22;5924;51.398;7.088;2022-08-19T04:31:45;15.00;99.90
11736;DHT22;5924;51.398;7.088;2022-08-19T04:34:14;15.10;99.90
11736;DHT22;5924;51.398;7.088;2022-08-19T04:36:42;15.00;99.90
11736;DHT22;5924;51.398;7.088;2022-08-19T04:39:22;15.10;99.90
11736;DHT22;5924;51.398;7.088;2022-08-19T04:41:48;15.10;99.90
11736;DHT22;5924;51.398;7.088;2022-08-19T04:44:34;15.10;99.90
11736;DHT22;5924;51.398;7.088;2022-08-19T04:47:01;15.10;99.90
11736;DHT22;5924;51.398;7.088;2022-08-19T04:49:27;15.10;99.90
11736;DHT22;5924;51.398;7.088;2022-08-19T04:51:54;15.10;99.90
11736;DHT22;5924;51.398;7.088;2022-08-19T04:54:22;15.20;99.90
11736;DHT22;5924;51.398;7.088;2022-08-19T04:56:49;15.20;99.90
11736;DHT22;5924;51.398;7.088;2022-08-19T04:59:16;15.20;99.90
11736;DHT22;5924;51.398;7.088;2022-08-19T05:01:42;15.20;99.90
11736;DHT22;5924;51.398;7.088;2022-08-19T05:04:08;15.20;99.90
11736;DHT22;5924;51.398;7.088;2022-08-19T05:06:35;15.20;99.90
11736;DHT22;5924;51.398;7.088;2022-08-19T05:09:03;15.30;99.90
11736;DHT22;5924;51.398;7.088;2022-08-19T05:11:33;15.30;99.90
11736;DHT22;5924;51.398;7.088;2022-08-19T05:13:59;15.30;99.90
11736;DHT22;5924;51.398;7.088;2022-08-19T05:16:26;15.40;99.90
11736;DHT22;5924;51.398;7.088;2022-08-19T05:18:53;15.40;99.90
11736;DHT22;5924;51.398;7.088;2022-08-19T05:21:40;15.40;99.90
11736;DHT22;5924;51.398;7.088;2022-08-19T05:24:24;15.40;99.90
11736;DHT22;5924;51.398;7.088;2022-08-19T05:26:51;15.40;99.90
11736;DHT22;5924;51.398;7.088;2022-08-19T05:29:19;15.50;99.90
11736;DHT22;5924;51.398;7.088;2022-08-19T05:31:46;15.50;99.90
11736;DHT22;5924;51.398;7.088;2022-08-19T05:34:14;15.60;99.90
11736;DHT22;5924;51.398;7.088;2022-08-19T05:36:43;15.70;99.90
11736;DHT22;5924;51.398;7.088;2022-08-19T05:39:13;15.80;99.90
11736;DHT22;5924;51.398;7.088;2022-08-19T05:41:55;16.00;99.90
11736;DHT22;5924;51.398;7.088;2022-08-19T05:44:23;16.10;99.90
11736;DHT22;5924;51.398;7.088;2022-08-19T05:46:49;16.20;99.90
11736;DHT22;5924;51.398;7.088;2022-08-19T05:49:19;16.30;99.90
11736;DHT22;5924;51.398;7.088;2022-08-19T05:51:44;16.40;99.90
11736;DHT22;5924;51.398;7.088;2022-08-19T05:54:11;16.50;99.90
11736;DHT22;5924;51.398;7.088;2022-08-19T05:56:42;16.60;99.90
11736;DHT22;5924;51.398;7.088;2022-08-19T05:59:09;16.70;99.90
11736;DHT22;5924;51.398;7.088;2022-08-19T06:01:38;16.70;99.90
11736;DHT22;5924;51.398;7.088;2022-08-19T06:04:04;16.80;99.90
11736;DHT22;5924;51.398;7.088;2022-08-19T06:06:30;16.90;99.90
11736;DHT22;5924;51.398;7.088;2022-08-19T06:08:56;16.90;99.90
11736;DHT22;5924;51.398;7.088;2022-08-19T06:11:23;16.90;99.90
11736;DHT22;5924;51.398;7.088;2022-08-19T06:13:52;17.00;99.90
11736;DHT22;5924;51.398;7.088;2022-08-19T06:16:20;17.10;99.90
11736;DHT22;5924;51.398;7.088;2022-08-19T06:18:52;17.10;99.50
11736;DHT22;5924;51.398;7.088;2022-08-19T06:21:23;17.20;98.70
11736;DHT22;5924;51.398;7.088;2022-08-19T06:23:50;17.20;98.20
11736;DHT22;5924;51.398;7.088;2022-08-19T06:26:17;17.30;97.70
11736;DHT22;5924;51.398;7.088;2022-08-19T06:28:44;17.40;97.60
11736;DHT22;5924;51.398;7.088;2022-08-19T06:31:27;17.40;97.40
11736;DHT22;5924;51.398;7.088;2022-08-19T06:33:53;17.40;97.20
11736;DHT22;5924;51.398;7.088;2022-08-19T06:36:29;17.40;97.70
11736;DHT22;5924;51.398;7.088;2022-08-19T06:38:58;17.40;97.60
11736;DHT22;5924;51.398;7.088;2022-08-19T06:41:25;17.50;97.80
11736;DHT22;5924;51.398;7.088;2022-08-19T06:43:51;17.50;98.30
11736;DHT22;5924;51.398;7.088;2022-08-19T06:46:18;17.50;98.30
11736;DHT22;5924;51.398;7.088;2022-08-19T06:48:47;17.50;98.10
11736;DHT22;5924;51.398;7.088;2022-08-19T06:51:15;17.60;98.80
11736;DHT22;5924;51.398;7.088;2022-08-19T06:53:47;17.60;99.10
11736;DHT22;5924;51.398;7.088;2022-08-19T06:56:15;17.70;99.50
11736;DHT22;5924;51.398;7.088;2022-08-19T06:58:41;17.70;99.90
11736;DHT22;5924;51.398;7.088;2022-08-19T07:01:07;17.80;99.90
11736;DHT22;5924;51.398;7.088;2022-08-19T07:03:34;17.80;99.90
11736;DHT22;5924;51.398;7.088;2022-08-19T07:06:09;17.90;99.90
11736;DHT22;5924;51.398;7.088;2022-08-19T07:08:37;17.80;99.90
11736;DHT22;5924;51.398;7.088;2022-08-19T07:11:06;18.10;99.90
11736;DHT22;5924;51.398;7.088;2022-08-19T07:13:32;18.20;99.90
11736;DHT22;5924;51.398;7.088;2022-08-19T07:16:06;18.40;99.90
11736;DHT22;5924;51.398;7.088;2022-08-19T07:18:33;18.50;99.70
11736;DHT22;5924;51.398;7.088;2022-08-19T07:21:08;18.60;99.10
11736;DHT22;5924;51.398;7.088;2022-08-19T07:23:34;18.70;97.80
11736;DHT22;5924;51.398;7.088;2022-08-19T07:26:14;18.90;96.60
11736;DHT22;5924;51.398;7.088;2022-08-19T07:28:40;19.00;94.40
11736;DHT22;5924;51.398;7.088;2022-08-19T07:31:18;19.20;91.60
11736;DHT22;5924;51.398;7.088;2022-08-19T07:33:45;19.30;88.20
11736;DHT22;5924;51.398;7.088;2022-08-19T07:36:16;19.40;77.70
11736;DHT22;5924;51.398;7.088;2022-08-19T07:38:45;19.60;73.20
11736;DHT22;5924;51.398;7.088;2022-08-19T07:41:15;19.70;64.60
11736;DHT22;5924;51.398;7.088;2022-08-19T07:43:41;19.80;56.60
11736;DHT22;5924;51.398;7.088;2022-08-19T07:46:09;19.90;53.00
11736;DHT22;5924;51.398;7.088;2022-08-19T07:48:35;20.10;37.30
11736;DHT22;5924;51.398;7.088;2022-08-19T07:51:03;20.20;34.20
11736;DHT22;5924;51.398;7.088;2022-08-19T07:53:30;20.40;23.90
11736;DHT22;5924;51.398;7.088;2022-08-19T07:55:56;20.50;11.20
11736;DHT22;5924;51.398;7.088;2022-08-19T07:58:27;20.50;3.10
11736;DHT22;5924;51.398;7.088;2022-08-19T08:00:53;20.60;4.20
11736;DHT22;5924;51.398;7.088;2022-08-19T08:03:21;20.70;1.00
11736;DHT22;5924;51.398;7.088;2022-08-19T08:06:14;20.70;1.00
11736;DHT22;5924;51.398;7.088;2022-08-19T08:08:59;20.60;1.00
11736;DHT22;5924;51.398;7.088;2022-08-19T08:11:49;20.60;1.00
11736;DHT22;5924;51.398;7.088;2022-08-19T08:14:24;20.60;1.00
11736;DHT22;5924;51.398;7.088;2022-08-19T08:16:51;20.70;1.00
11736;DHT22;5924;51.398;7.088;2022-08-19T08:19:19;20.80;1.00
11736;DHT22;5924;51.398;7.088;2022-08-19T08:21:46;21.00;1.00
11736;DHT22;5924;51.398;7.088;2022-08-19T08:24:12;21.00;1.00
11736;DHT22;5924;51.398;7.088;2022-08-19T08:26:39;21.20;1.00
11736;DHT22;5924;51.398;7.088;2022-08-19T08:29:05;21.30;1.00
11736;DHT22;5924;51.398;7.088;2022-08-19T08:31:32;21.50;1.00
11736;DHT22;5924;51.398;7.088;2022-08-19T08:33:59;21.70;1.00
11736;DHT22;5924;51.398;7.088;2022-08-19T08:36:25;21.90;1.00
11736;DHT22;5924;51.398;7.088;2022-08-19T08:38:51;22.10;1.00
11736;DHT22;5924;51.398;7.088;2022-08-19T08:43:56;22.50;1.00
11736;DHT22;5924;51.398;7.088;2022-08-19T08:46:42;22.80;1.00
11736;DHT22;5924;51.398;7.088;2022-08-19T08:51:52;23.00;1.00
11736;DHT22;5924;51.398;7.088;2022-08-19T08:54:21;23.10;1.00
11736;DHT22;5924;51.398;7.088;2022-08-19T08:56:49;23.30;1.00
11736;DHT22;5924;51.398;7.088;2022-08-19T08:59:21;23.40;1.00
11736;DHT22;5924;51.398;7.088;2022-08-19T09:01:48;23.60;1.00
11736;DHT22;5924;51.398;7.088;2022-08-19T09:04:14;23.80;99.90
11736;DHT22;5924;51.398;7.088;2022-08-19T09:09:29;24.00;99.90
11736;DHT22;5924;51.398;7.088;2022-08-19T09:17:11;24.40;99.90
11736;DHT22;5924;51.398;7.088;2022-08-19T09:20:31;24.40;1.00
11736;DHT22;5924;51.398;7.088;2022-08-19T09:22:40;24.40;1.00
11736;DHT22;5924;51.398;7.088;2022-08-19T09:25:11;24.30;99.90
11736;DHT22;5924;51.398;7.088;2022-08-19T09:27:41;24.20;99.90
11736;DHT22;5924;51.398;7.088;2022-08-19T09:30:16;24.10;74.90
11736;DHT22;5924;51.398;7.088;2022-08-19T09:32:42;24.10;99.90
11736;DHT22;5924;51.398;7.088;2022-08-19T09:35:10;24.10;1.00
11736;DHT22;5924;51.398;7.088;2022-08-19T09:37:36;24.10;1.00
11736;DHT22;5924;51.398;7.088;2022-08-19T09:40:02;24.10;1.00
11736;DHT22;5924;51.398;7.088;2022-08-19T09:42:28;24.00;1.00
11736;DHT22;5924;51.398;7.088;2022-08-19T09:44:54;24.00;99.90
11736;DHT22;5924;51.398;7.088;2022-08-19T09:47:19;24.00;99.90
11736;DHT22;5924;51.398;7.088;2022-08-19T09:49:45;24.00;1.00
11736;DHT22;5924;51.398;7.088;2022-08-19T09:52:12;24.10;1.00
11736;DHT22;5924;51.398;7.088;2022-08-19T09:54:38;24.20;99.90
11736;DHT22;5924;51.398;7.088;2022-08-19T09:57:05;24.40;99.90
11736;DHT22;5924;51.398;7.088;2022-08-19T09:59:30;24.60;1.00
11736;DHT22;5924;51.398;7.088;2022-08-19T10:01:56;24.80;1.00
11736;DHT22;5924;51.398;7.088;2022-08-19T10:04:22;24.90;1.00
11736;DHT22;5924;51.398;7.088;2022-08-19T10:06:49;25.00;1.00
11736;DHT22;5924;51.398;7.088;2022-08-19T10:09:17;25.10;99.90
11736;DHT22;5924;51.398;7.088;2022-08-19T10:11:45;25.30;99.90
11736;DHT22;5924;51.398;7.088;2022-08-19T10:14:15;25.40;99.90
11736;DHT22;5924;51.398;7.088;2022-08-19T10:16:42;25.50;99.90
11736;DHT22;5924;51.398;7.088;2022-08-19T10:19:08;25.40;99.90
11736;DHT22;5924;51.398;7.088;2022-08-19T10:21:35;25.30;99.90
11736;DHT22;5924;51.398;7.088;2022-08-19T10:24:03;25.00;99.90
11736;DHT22;5924;51.398;7.088;2022-08-19T10:26:33;24.90;99.90
11736;DHT22;5924;51.398;7.088;2022-08-19T10:29:01;25.10;99.90
11736;DHT22;5924;51.398;7.088;2022-08-19T10:31:29;25.20;99.90
11736;DHT22;5924;51.398;7.088;2022-08-19T10:33:56;25.30;99.90
11736;DHT22;5924;51.398;7.088;2022-08-19T10:36:34;25.20;99.90
11736;DHT22;5924;51.398;7.088;2022-08-19T10:39:05;25.00;99.90
11736;DHT22;5924;51.398;7.088;2022-08-19T10:41:33;24.90;99.90
11736;DHT22;5924;51.398;7.088;2022-08-19T10:44:02;24.90;99.90
11736;DHT22;5924;51.398;7.088;2022-08-19T10:46:29;25.00;99.90
11736;DHT22;5924;51.398;7.088;2022-08-19T10:48:58;24.90;99.90
11736;DHT22;5924;51.398;7.088;2022-08-19T10:51:24;24.80;99.90
11736;DHT22;5924;51.398;7.088;2022-08-19T10:54:09;24.70;99.90
11736;DHT22;5924;51.398;7.088;2022-08-19T10:56:35;24.80;99.90
11736;DHT22;5924;51.398;7.088;2022-08-19T10:59:22;25.10;99.90
11736;DHT22;5924;51.398;7.088;2022-08-19T11:01:49;25.50;99.90
11736;DHT22;5924;51.398;7.088;2022-08-19T11:04:15;25.70;99.90
11736;DHT22;5924;51.398;7.088;2022-08-19T11:06:47;26.00;99.90
11736;DHT22;5924;51.398;7.088;2022-08-19T11:09:19;28.00;99.90
11736;DHT22;5924;51.398;7.088;2022-08-19T11:11:45;26.70;99.90
11736;DHT22;5924;51.398;7.088;2022-08-19T11:14:15;27.00;99.90
11736;DHT22;5924;51.398;7.088;2022-08-19T11:16:42;27.30;99.90
11736;DHT22;5924;51.398;7.088;2022-08-19T11:19:10;27.50;99.90
11736;DHT22;5924;51.398;7.088;2022-08-19T11:21:42;27.70;99.90
11736;DHT22;5924;51.398;7.088;2022-08-19T11:24:11;28.00;99.90
11736;DHT22;5924;51.398;7.088;2022-08-19T11:26:38;28.20;99.90
11736;DHT22;5924;51.398;7.088;2022-08-19T11:29:06;27.80;99.90
11736;DHT22;5924;51.398;7.088;2022-08-19T11:31:34;27.50;99.90
11736;DHT22;5924;51.398;7.088;2022-08-19T11:34:03;27.00;99.90
11736;DHT22;5924;51.398;7.088;2022-08-19T11:36:30;26.80;99.90
11736;DHT22;5924;51.398;7.088;2022-08-19T11:38:57;26.80;99.90
11736;DHT22;5924;51.398;7.088;2022-08-19T11:41:24;26.90;99.90
11736;DHT22;5924;51.398;7.088;2022-08-19T11:43:51;27.10;99.90
11736;DHT22;5924;51.398;7.088;2022-08-19T11:46:19;27.30;99.90
11736;DHT22;5924;51.398;7.088;2022-08-19T11:48:46;27.50;99.90
11736;DHT22;5924;51.398;7.088;2022-08-19T11:51:15;27.50;99.90
11736;DHT22;5924;51.398;7.088;2022-08-19T11:53:41;27.50;99.90
11736;DHT22;5924;51.398;7.088;2022-08-19T11:56:08;27.40;99.90
11736;DHT22;5924;51.398;7.088;2022-08-19T11:58:35;27.30;99.90
11736;DHT22;5924;51.398;7.088;2022-08-19T12:01:01;27.00;99.90
11736;DHT22;5924;51.398;7.088;2022-08-19T12:03:30;27.00;99.90
11736;DHT22;5924;51.398;7.088;2022-08-19T12:05:57;27.20;99.90
11736;DHT22;5924;51.398;7.088;2022-08-19T12:08:22;27.60;99.90
11736;DHT22;5924;51.398;7.088;2022-08-19T12:10:48;27.90;99.90
11736;DHT22;5924;51.398;7.088;2022-08-19T12:13:14;28.10;99.90
11736;DHT22;5924;51.398;7.088;2022-08-19T12:15:47;28.40;99.90
11736;DHT22;5924;51.398;7.088;2022-08-19T12:18:12;28.80;99.90
11736;DHT22;5924;51.398;7.088;2022-08-19T12:20:43;29.50;99.90
11736;DHT22;5924;51.398;7.088;2022-08-19T12:23:09;30.20;99.90
11736;DHT22;5924;51.398;7.088;2022-08-19T12:25:36;30.90;99.90
11736;DHT22;5924;51.398;7.088;2022-08-19T12:28:03;31.00;99.90
11736;DHT22;5924;51.398;7.088;2022-08-19T12:30:29;31.00;99.90
11736;DHT22;5924;51.398;7.088;2022-08-19T12:32:55;30.70;99.50
11736;DHT22;5924;51.398;7.088;2022-08-19T12:35:20;30.40;99.30
11736;DHT22;5924;51.398;7.088;2022-08-19T12:37:47;30.70;99.40
11736;DHT22;5924;51.398;7.088;2022-08-19T12:40:15;31.60;97.60
11736;DHT22;5924;51.398;7.088;2022-08-19T12:42:41;32.50;96.40
11736;DHT22;5924;51.398;7.088;2022-08-19T12:45:12;32.80;94.90
11736;DHT22;5924;51.398;7.088;2022-08-19T12:47:39;32.70;94.20
11736;DHT22;5924;51.398;7.088;2022-08-19T12:50:05;32.10;93.70
11736;DHT22;5924;51.398;7.088;2022-08-19T12:52:35;31.80;92.50
11736;DHT22;5924;51.398;7.088;2022-08-19T12:55:05;31.30;93.60
11736;DHT22;5924;51.398;7.088;2022-08-19T12:57:30;29.40;95.40
11736;DHT22;5924;51.398;7.088;2022-08-19T13:00:20;29.00;96.30
11736;DHT22;5924;51.398;7.088;2022-08-19T13:02:47;28.80;95.90
11736;DHT22;5924;51.398;7.088;2022-08-19T13:05:17;29.40;96.40
11736;DHT22;5924;51.398;7.088;2022-08-19T13:07:45;30.70;93.90
11736;DHT22;5924;51.398;7.088;2022-08-19T13:10:14;31.40;93.50
11736;DHT22;5924;51.398;7.088;2022-08-19T13:12:41;32.10;91.10
11736;DHT22;5924;51.398;7.088;2022-08-19T13:15:08;32.10;90.20
11736;DHT22;5924;51.398;7.088;2022-08-19T13:17:34;32.60;89.30
11736;DHT22;5924;51.398;7.088;2022-08-19T13:20:00;33.00;87.60
11736;DHT22;5924;51.398;7.088;2022-08-19T13:22:26;33.70;84.70
11736;DHT22;5924;51.398;7.088;2022-08-19T13:24:52;34.30;82.00
11736;DHT22;5924;51.398;7.088;2022-08-19T13:27:18;34.90;80.60
11736;DHT22;5924;51.398;7.088;2022-08-19T13:29:44;35.50;76.40
11736;DHT22;5924;51.398;7.088;2022-08-19T13:32:29;35.60;74.50
11736;DHT22;5924;51.398;7.088;2022-08-19T13:35:15;35.90;73.20
11736;DHT22;5924;51.398;7.088;2022-08-19T13:37:41;35.90;70.20
11736;DHT22;5924;51.398;7.088;2022-08-19T13:40:10;35.90;71.30
11736;DHT22;5924;51.398;7.088;2022-08-19T13:42:40;36.20;70.60
11736;DHT22;5924;51.398;7.088;2022-08-19T13:45:06;36.80;69.50
11736;DHT22;5924;51.398;7.088;2022-08-19T13:47:34;37.00;65.80
11736;DHT22;5924;51.398;7.088;2022-08-19T13:50:02;36.70;62.50
11736;DHT22;5924;51.398;7.088;2022-08-19T13:52:27;36.30;62.00
11736;DHT22;5924;51.398;7.088;2022-08-19T13:54:53;35.80;62.90
11736;DHT22;5924;51.398;7.088;2022-08-19T13:57:19;35.80;62.10
11736;DHT22;5924;51.398;7.088;2022-08-19T13:59:45;35.70;62.00
11736;DHT22;5924;51.398;7.088;2022-08-19T14:02:10;36.20;61.70
11736;DHT22;5924;51.398;7.088;2022-08-19T14:04:36;36.80;59.10
11736;DHT22;5924;51.398;7.088;2022-08-19T14:07:03;36.50;60.80
11736;DHT22;5924;51.398;7.088;2022-08-19T14:09:29;36.70;60.20
11736;DHT22;5924;51.398;7.088;2022-08-19T14:11:55;36.90;61.00
11736;DHT22;5924;51.398;7.088;2022-08-19T14:14:20;37.10;58.90
11736;DHT22;5924;51.398;7.088;2022-08-19T14:16:49;37.00;57.80
11736;DHT22;5924;51.398;7.088;2022-08-19T14:19:17;36.90;59.00
11736;DHT22;5924;51.398;7.088;2022-08-19T14:21:45;36.50;58.10
11736;DHT22;5924;51.398;7.088;2022-08-19T14:24:10;34.60;59.20
11736;DHT22;5924;51.398;7.088;2022-08-19T14:26:36;32.90;62.50
11736;DHT22;5924;51.398;7.088;2022-08-19T14:29:02;32.50;63.80
11736;DHT22;5924;51.398;7.088;2022-08-19T14:31:28;33.50;62.80
11736;DHT22;5924;51.398;7.088;2022-08-19T14:33:53;34.60;61.60
11736;DHT22;5924;51.398;7.088;2022-08-19T14:36:19;35.70;60.80
11736;DHT22;5924;51.398;7.088;2022-08-19T14:38:47;36.50;58.30
11736;DHT22;5924;51.398;7.088;2022-08-19T14:41:22;37.20;57.20
11736;DHT22;5924;51.398;7.088;2022-08-19T14:43:50;37.90;56.50
11736;DHT22;5924;51.398;7.088;2022-08-19T14:46:21;38.40;55.10
11736;DHT22;5924;51.398;7.088;2022-08-19T14:48:47;38.60;52.40
11736;DHT22;5924;51.398;7.088;2022-08-19T14:51:13;38.20;53.90
11736;DHT22;5924;51.398;7.088;2022-08-19T14:53:39;39.30;53.30
11736;DHT22;5924;51.398;7.088;2022-08-19T14:56:11;36.60;53.70
11736;DHT22;5924;51.398;7.088;2022-08-19T14:58:38;36.20;54.80
11736;DHT22;5924;51.398;7.088;2022-08-19T15:01:06;36.20;54.00
11736;DHT22;5924;51.398;7.088;2022-08-19T15:03:32;34.80;55.60
11736;DHT22;5924;51.398;7.088;2022-08-19T15:06:00;33.00;58.70
11736;DHT22;5924;51.398;7.088;2022-08-19T15:08:28;32.10;61.70
11736;DHT22;5924;51.398;7.088;2022-08-19T15:10:54;32.90;61.90
11736;DHT22;5924;51.398;7.088;2022-08-19T15:13:20;33.90;60.30
11736;DHT22;5924;51.398;7.088;2022-08-19T15:15:50;34.60;59.00
11736;DHT22;5924;51.398;7.088;2022-08-19T15:18:17;33.90;58.50
11736;DHT22;5924;51.398;7.088;2022-08-19T15:20:43;32.30;61.10
11736;DHT22;5924;51.398;7.088;2022-08-19T15:23:10;30.50;65.60
11736;DHT22;5924;51.398;7.088;2022-08-19T15:25:36;29.40;68.80
11736;DHT22;5924;51.398;7.088;2022-08-19T15:28:03;28.50;71.40
11736;DHT22;5924;51.398;7.088;2022-08-19T15:30:29;27.90;74.10
11736;DHT22;5924;51.398;7.088;2022-08-19T15:32:57;27.50;75.70
11736;DHT22;5924;51.398;7.088;2022-08-19T15:35:23;28.70;79.30
11736;DHT22;5924;51.398;7.088;2022-08-19T15:37:52;27.30;78.80
11736;DHT22;5924;51.398;7.088;2022-08-19T15:40:20;27.50;80.20
11736;DHT22;5924;51.398;7.088;2022-08-19T15:42:46;29.00;77.40
11736;DHT22;5924;51.398;7.088;2022-08-19T15:45:14;30.60;74.10
11736;DHT22;5924;51.398;7.088;2022-08-19T15:47:41;32.40;69.00
11736;DHT22;5924;51.398;7.088;2022-08-19T15:50:10;33.80;65.00
11736;DHT22;5924;51.398;7.088;2022-08-19T15:52:47;34.60;63.90
11736;DHT22;5924;51.398;7.088;2022-08-19T15:55:13;34.50;61.80
11736;DHT22;5924;51.398;7.088;2022-08-19T15:57:38;34.70;60.20
11736;DHT22;5924;51.398;7.088;2022-08-19T16:00:23;35.30;59.30
11736;DHT22;5924;51.398;7.088;2022-08-19T16:03:12;35.90;58.00
11736;DHT22;5924;51.398;7.088;2022-08-19T16:05:57;36.10;56.90
11736;DHT22;5924;51.398;7.088;2022-08-19T16:08:42;36.80;57.30